createdAt,value
2024-05-09T00:00:15.590Z,3.55
2024-05-09T00:01:11.515Z,3.56
2024-05-09T00:02:10.464Z,3.57
2024-05-09T00:03:11.746Z,3.58
2024-05-09T00:04:10.531Z,3.56
2024-05-09T00:05:10.723Z,3.55
2024-05-09T00:06:10.548Z,3.58
2024-05-09T00:07:10.502Z,3.67
2024-05-09T00:08:10.787Z,3.67
2024-05-09T00:09:10.530Z,3.57
2024-05-09T00:10:18.243Z,3.56
2024-05-09T00:11:11.635Z,3.56
2024-05-09T00:12:10.643Z,3.56
2024-05-09T00:13:11.231Z,3.49
2024-05-09T00:14:10.639Z,3.56
2024-05-09T00:15:10.610Z,3.60
2024-05-09T00:16:10.628Z,3.51
2024-05-09T00:17:10.673Z,3.53
2024-05-09T00:18:10.778Z,3.60
2024-05-09T00:19:10.884Z,3.54
2024-05-09T00:20:17.606Z,3.53
2024-05-09T00:21:11.848Z,3.48
2024-05-09T00:22:11.035Z,3.54
2024-05-09T00:23:11.968Z,3.44
2024-05-09T00:24:10.908Z,3.50
2024-05-09T00:25:10.816Z,3.53
2024-05-09T00:26:10.944Z,3.47
2024-05-09T00:27:13.241Z,3.52
2024-05-09T00:28:11.091Z,3.47
2024-05-09T00:29:11.152Z,3.51
2024-05-09T00:30:17.480Z,3.48
2024-05-09T00:31:12.202Z,3.48
2024-05-09T00:32:11.337Z,3.49
2024-05-09T00:33:11.919Z,3.51
2024-05-09T00:34:11.310Z,3.48
2024-05-09T00:35:11.269Z,3.48
2024-05-09T00:36:11.254Z,3.47
2024-05-09T00:37:11.268Z,3.41
2024-05-09T00:38:11.339Z,3.47
2024-05-09T00:39:11.284Z,3.45
2024-05-09T00:40:18.324Z,3.38
2024-05-09T00:41:12.364Z,3.38
2024-05-09T00:42:11.336Z,3.39
2024-05-09T00:43:12.101Z,3.41
2024-05-09T00:44:11.419Z,3.44
2024-05-09T00:45:11.384Z,3.41
2024-05-09T00:46:11.369Z,3.44
2024-05-09T00:47:11.490Z,3.38
2024-05-09T00:48:13.453Z,3.37
2024-05-09T00:49:11.534Z,3.37
2024-05-09T00:50:16.014Z,3.35
2024-05-09T00:51:12.546Z,3.37
2024-05-09T00:52:11.458Z,3.39
2024-05-09T00:53:11.760Z,3.39
2024-05-09T00:54:11.482Z,3.45
2024-05-09T00:55:11.497Z,3.44
2024-05-09T00:56:11.521Z,3.46
2024-05-09T00:57:11.526Z,3.40
2024-05-09T00:58:11.526Z,3.33
2024-05-09T00:59:11.593Z,3.36
2024-05-09T01:00:22.442Z,3.34
2024-05-09T01:01:12.642Z,3.34
2024-05-09T01:02:11.706Z,3.35
2024-05-09T01:03:13.456Z,3.35
2024-05-09T01:04:11.712Z,3.41
2024-05-09T01:05:11.745Z,3.37
2024-05-09T01:06:11.679Z,3.39
2024-05-09T01:07:11.705Z,3.39
2024-05-09T01:08:12.107Z,3.35
2024-05-09T01:09:11.716Z,3.34
2024-05-09T01:10:17.358Z,3.31
2024-05-09T01:11:12.788Z,3.31
2024-05-09T01:12:11.920Z,3.33
2024-05-09T01:13:11.783Z,3.26
2024-05-09T01:14:11.884Z,3.34
2024-05-09T01:15:11.817Z,3.38
2024-05-09T01:16:11.834Z,3.36
2024-05-09T01:17:12.007Z,3.38
2024-05-09T01:18:13.204Z,3.32
2024-05-09T01:19:12.054Z,3.34
2024-05-09T01:20:19.811Z,3.25
2024-05-09T01:21:13.136Z,3.26
2024-05-09T01:22:12.088Z,3.26
2024-05-09T01:23:12.577Z,3.25
2024-05-09T01:24:12.127Z,3.29
2024-05-09T01:25:12.139Z,3.34
2024-05-09T01:26:12.197Z,3.26
2024-05-09T01:27:12.186Z,3.28
2024-05-09T01:28:12.199Z,3.18
2024-05-09T01:29:12.291Z,3.25
2024-05-09T01:30:17.296Z,3.26
2024-05-09T01:31:13.322Z,3.26
2024-05-09T01:32:12.432Z,3.26
2024-05-09T01:33:13.162Z,3.26
2024-05-09T01:34:13.110Z,3.30
2024-05-09T01:35:12.424Z,3.25
2024-05-09T01:36:12.399Z,3.25
2024-05-09T01:37:12.427Z,3.28
2024-05-09T01:38:12.503Z,3.21
2024-05-09T01:39:12.453Z,3.18
2024-05-09T01:40:18.407Z,3.14
2024-05-09T01:41:13.565Z,3.14
2024-05-09T01:42:12.550Z,3.15
2024-05-09T01:43:12.582Z,3.17
2024-05-09T01:44:12.607Z,3.20
2024-05-09T01:45:12.584Z,3.10
2024-05-09T01:46:12.625Z,3.21
2024-05-09T01:47:12.721Z,3.17
2024-05-09T01:48:12.822Z,3.15
2024-05-09T01:49:12.804Z,3.14
2024-05-09T01:50:16.359Z,3.17
2024-05-09T01:51:12.886Z,3.21
2024-05-09T01:52:12.676Z,3.16
2024-05-09T01:53:13.265Z,3.17
2024-05-09T01:54:12.688Z,3.18
2024-05-09T01:55:12.694Z,3.15
2024-05-09T01:56:12.748Z,3.06
2024-05-09T01:57:12.736Z,3.15
2024-05-09T01:58:12.741Z,3.07
2024-05-09T01:59:12.770Z,3.03
2024-05-09T02:00:15.691Z,3.09
2024-05-09T02:01:13.831Z,3.10
2024-05-09T02:02:12.897Z,3.10
2024-05-09T02:03:15.676Z,3.08
2024-05-09T02:04:13.019Z,3.10
2024-05-09T02:05:12.911Z,3.11
2024-05-09T02:06:12.855Z,3.12
2024-05-09T02:07:12.865Z,3.10
2024-05-09T02:08:12.974Z,3.15
2024-05-09T02:09:12.878Z,3.04
2024-05-09T02:10:20.168Z,3.06
2024-05-09T02:11:14.017Z,3.07
2024-05-09T02:12:13.086Z,3.06
2024-05-09T02:13:13.019Z,3.07
2024-05-09T02:14:12.999Z,3.04
2024-05-09T02:15:12.977Z,3.09
2024-05-09T02:16:12.982Z,3.08
2024-05-09T02:17:13.091Z,3.11
2024-05-09T02:18:13.636Z,3.05
2024-05-09T02:19:13.230Z,3.03
2024-05-09T02:20:18.955Z,3.02
2024-05-09T02:21:14.088Z,3.03
2024-05-09T02:22:13.087Z,3.03
2024-05-09T02:23:13.170Z,3.04
2024-05-09T02:24:13.092Z,3.03
2024-05-09T02:25:13.112Z,3.01
2024-05-09T02:26:13.188Z,3.05
2024-05-09T02:27:13.155Z,2.97
2024-05-09T02:28:13.158Z,3.00
2024-05-09T02:29:13.261Z,2.95
2024-05-09T02:30:19.078Z,2.93
2024-05-09T02:31:14.192Z,2.93
2024-05-09T02:32:13.333Z,2.94
2024-05-09T02:33:14.472Z,2.95
2024-05-09T02:34:13.361Z,2.96
2024-05-09T02:35:13.249Z,3.04
2024-05-09T02:36:13.215Z,2.91
2024-05-09T02:37:13.233Z,2.95
2024-05-09T02:38:13.716Z,2.95
2024-05-09T02:39:13.241Z,2.93
2024-05-09T02:40:14.931Z,2.90
2024-05-09T02:41:14.343Z,2.90
2024-05-09T02:42:13.276Z,2.91
2024-05-09T02:43:13.406Z,2.91
2024-05-09T02:44:13.427Z,2.94
2024-05-09T02:45:13.291Z,2.88
2024-05-09T02:46:13.308Z,2.97
2024-05-09T02:47:13.448Z,2.97
2024-05-09T02:48:14.114Z,2.85
2024-05-09T02:49:13.507Z,2.88
2024-05-09T02:51:13.370Z,2.86
2024-05-09T02:52:13.394Z,2.87
2024-05-09T02:53:14.036Z,2.80
2024-05-09T02:54:13.529Z,2.91
2024-05-09T02:55:13.562Z,2.82
2024-05-09T02:56:13.697Z,2.82
2024-05-09T02:57:13.720Z,2.80
2024-05-09T02:58:13.787Z,2.78
2024-05-09T02:59:13.928Z,2.82
2024-05-09T03:00:19.072Z,2.87
2024-05-09T03:01:14.968Z,2.87
2024-05-09T03:02:14.094Z,2.87
2024-05-09T03:03:15.548Z,2.86
2024-05-09T03:04:14.042Z,2.82
2024-05-09T03:05:14.081Z,2.83
2024-05-09T03:06:14.045Z,2.81
2024-05-09T03:07:14.051Z,2.82
2024-05-09T03:08:14.257Z,2.83
2024-05-09T03:09:14.067Z,2.83
2024-05-09T03:10:21.942Z,2.82
2024-05-09T03:11:15.218Z,2.83
2024-05-09T03:12:14.163Z,2.81
2024-05-09T03:13:15.580Z,2.83
2024-05-09T03:14:14.162Z,2.83
2024-05-09T03:15:14.161Z,2.82
2024-05-09T03:16:14.190Z,2.76
2024-05-09T03:17:14.201Z,2.80
2024-05-09T03:18:14.404Z,2.83
2024-05-09T03:19:14.499Z,2.75
2024-05-09T03:20:20.423Z,2.78
2024-05-09T03:21:15.434Z,2.78
2024-05-09T03:22:14.406Z,2.74
2024-05-09T03:23:14.438Z,2.79
2024-05-09T03:24:14.424Z,2.82
2024-05-09T03:25:14.441Z,2.77
2024-05-09T03:26:14.448Z,2.73
2024-05-09T03:27:14.465Z,2.79
2024-05-09T03:28:14.479Z,2.79
2024-05-09T03:29:14.592Z,2.75
2024-05-09T03:31:14.490Z,2.65
2024-05-09T03:32:14.604Z,2.68
2024-05-09T03:33:15.566Z,2.73
2024-05-09T03:34:14.587Z,2.65
2024-05-09T03:35:14.662Z,2.66
2024-05-09T03:36:14.620Z,2.71
2024-05-09T03:37:14.666Z,2.68
2024-05-09T03:38:14.907Z,2.67
2024-05-09T03:39:14.719Z,2.67
2024-05-09T03:40:20.835Z,2.63
2024-05-09T03:41:15.811Z,2.63
2024-05-09T03:42:14.777Z,2.64
2024-05-09T03:43:14.780Z,2.67
2024-05-09T03:44:14.811Z,2.64
2024-05-09T03:45:14.810Z,2.69
2024-05-09T03:46:14.812Z,2.71
2024-05-09T03:47:14.945Z,2.65
2024-05-09T03:48:14.991Z,2.66
2024-05-09T03:49:14.979Z,2.61
2024-05-09T03:50:22.036Z,2.56
2024-05-09T03:51:15.919Z,2.57
2024-05-09T03:52:14.903Z,2.58
2024-05-09T03:53:15.073Z,2.60
2024-05-09T03:54:14.958Z,2.61
2024-05-09T03:55:14.942Z,2.64
2024-05-09T03:56:14.990Z,2.63
2024-05-09T03:57:14.974Z,2.62
2024-05-09T03:58:14.993Z,2.59
2024-05-09T03:59:15.202Z,2.58
2024-05-09T04:00:21.970Z,2.57
2024-05-09T04:01:16.085Z,2.57
2024-05-09T04:02:15.128Z,2.57
2024-05-09T04:03:15.452Z,2.57
2024-05-09T04:04:15.093Z,2.57
2024-05-09T04:05:15.127Z,2.59
2024-05-09T04:06:15.087Z,2.57
2024-05-09T04:07:15.122Z,2.59
2024-05-09T04:08:15.649Z,2.58
2024-05-09T04:09:15.144Z,2.57
2024-05-09T04:10:23.996Z,2.51
2024-05-09T04:11:16.222Z,2.51
2024-05-09T04:12:15.333Z,2.53
2024-05-09T04:13:15.214Z,2.54
2024-05-09T04:14:15.254Z,2.52
2024-05-09T04:15:15.248Z,2.56
2024-05-09T04:16:15.625Z,2.53
2024-05-09T04:17:15.406Z,2.55
2024-05-09T04:18:15.373Z,2.55
2024-05-09T04:19:15.481Z,2.47
2024-05-09T04:20:28.234Z,2.54
2024-05-09T04:21:16.465Z,2.54
2024-05-09T04:22:15.433Z,2.55
2024-05-09T04:23:15.485Z,2.53
2024-05-09T04:24:15.464Z,2.51
2024-05-09T04:25:15.474Z,2.48
2024-05-09T04:26:15.648Z,2.55
2024-05-09T04:27:15.518Z,2.52
2024-05-09T04:28:15.530Z,2.47
2024-05-09T04:29:15.605Z,2.45
2024-05-09T04:30:21.889Z,2.45
2024-05-09T04:31:16.642Z,2.45
2024-05-09T04:32:15.760Z,2.46
2024-05-09T04:33:15.893Z,2.47
2024-05-09T04:34:15.884Z,2.46
2024-05-09T04:35:15.752Z,2.51
2024-05-09T04:36:15.710Z,2.51
2024-05-09T04:37:15.746Z,2.50
2024-05-09T04:38:16.079Z,2.51
2024-05-09T04:39:15.755Z,2.49
2024-05-09T04:40:24.255Z,2.46
2024-05-09T04:41:16.856Z,2.46
2024-05-09T04:42:15.838Z,2.47
2024-05-09T04:43:15.881Z,2.48
2024-05-09T04:44:15.951Z,2.48
2024-05-09T04:45:15.871Z,2.47
2024-05-09T04:46:15.887Z,2.46
2024-05-09T04:47:16.035Z,2.45
2024-05-09T04:48:16.050Z,2.50
2024-05-09T04:49:16.041Z,2.50
2024-05-09T04:50:25.205Z,2.48
2024-05-09T04:51:16.983Z,2.46
2024-05-09T04:52:24.305Z,0.50
2024-05-09T04:53:24.446Z,0.50
2024-05-09T04:54:33.690Z,0.50
2024-05-09T04:55:25.408Z,0.50
2024-05-09T04:56:24.483Z,0.50
2024-05-09T04:57:24.418Z,0.50
2024-05-09T04:58:24.450Z,0.50
2024-05-09T04:59:24.661Z,0.50
2024-05-09T05:00:32.012Z,0.50
2024-05-09T05:01:25.573Z,0.50
2024-05-09T05:02:24.612Z,0.50
2024-05-09T05:03:24.846Z,0.50
2024-05-09T05:04:24.636Z,0.50
2024-05-09T05:05:24.611Z,0.48
2024-05-09T05:06:24.624Z,0.52
2024-05-09T05:07:24.639Z,0.51
2024-05-09T05:08:24.722Z,0.51
2024-05-09T05:09:24.696Z,0.52
2024-05-09T05:10:33.055Z,0.50
2024-05-09T05:11:25.896Z,0.50
2024-05-09T05:12:24.952Z,0.50
2024-05-09T05:13:25.329Z,0.51
2024-05-09T05:14:24.899Z,0.51
2024-05-09T05:15:24.883Z,0.51
2024-05-09T05:16:24.896Z,0.51
2024-05-09T05:17:24.983Z,0.52
2024-05-09T05:18:25.062Z,0.50
2024-05-09T05:19:25.103Z,0.51
2024-05-09T05:20:32.562Z,0.50
2024-05-09T05:21:26.185Z,0.50
2024-05-09T05:22:24.989Z,0.50
2024-05-09T05:23:25.071Z,0.51
2024-05-09T05:24:25.010Z,0.51
2024-05-09T05:25:25.040Z,0.51
2024-05-09T05:26:25.091Z,0.51
2024-05-09T05:27:25.077Z,0.52
2024-05-09T05:28:25.106Z,0.51
2024-05-09T05:29:25.183Z,0.51
2024-05-09T05:30:29.228Z,0.51
2024-05-09T05:31:26.287Z,0.51
2024-05-09T05:32:25.321Z,0.51
2024-05-09T05:33:25.314Z,0.52
2024-05-09T05:34:25.258Z,0.52
2024-05-09T05:35:25.396Z,0.52
2024-05-09T05:36:25.288Z,0.51
2024-05-09T05:37:25.298Z,0.51
2024-05-09T05:38:28.112Z,0.51
2024-05-09T05:39:25.344Z,0.51
2024-05-09T05:40:33.007Z,0.52
2024-05-09T05:41:26.442Z,0.52
2024-05-09T05:42:25.408Z,0.52
2024-05-09T05:43:25.437Z,0.51
2024-05-09T05:44:25.537Z,0.50
2024-05-09T05:45:25.474Z,0.50
2024-05-09T05:46:25.485Z,0.52
2024-05-09T05:47:25.614Z,0.51
2024-05-09T05:48:25.648Z,0.51
2024-05-09T05:49:25.739Z,0.52
2024-05-09T05:50:32.489Z,0.52
2024-05-09T05:51:26.700Z,0.52
2024-05-09T05:52:25.697Z,0.52
2024-05-09T05:53:25.780Z,0.52
2024-05-09T05:54:25.748Z,0.52
2024-05-09T05:55:25.765Z,0.52
2024-05-09T05:56:25.826Z,0.52
2024-05-09T05:57:25.786Z,0.52
2024-05-09T05:58:25.814Z,0.50
2024-05-09T05:59:25.930Z,0.52
2024-05-09T06:00:34.057Z,0.51
2024-05-09T06:01:27.066Z,0.51
2024-05-09T06:02:26.054Z,0.51
2024-05-09T06:03:26.051Z,0.50
2024-05-09T06:04:26.073Z,0.51
2024-05-09T06:05:27.654Z,0.51
2024-05-09T06:06:26.068Z,0.51
2024-05-09T06:07:26.093Z,0.51
2024-05-09T06:08:28.886Z,0.50
2024-05-09T06:09:26.133Z,0.51
2024-05-09T06:10:34.607Z,0.51
2024-05-09T06:11:27.270Z,0.51
2024-05-09T06:12:26.293Z,0.51
2024-05-09T06:13:26.227Z,0.51
2024-05-09T06:14:26.290Z,0.51
2024-05-09T06:15:26.287Z,0.51
2024-05-09T06:16:26.308Z,0.51
2024-05-09T06:17:26.480Z,0.51
2024-05-09T06:18:26.583Z,0.52
2024-05-09T06:19:26.573Z,0.51
2024-05-09T06:20:34.756Z,0.50
2024-05-09T06:21:27.561Z,0.50
2024-05-09T06:22:26.538Z,0.50
2024-05-09T06:23:26.594Z,0.50
2024-05-09T06:24:26.586Z,0.51
2024-05-09T06:25:26.601Z,0.50
2024-05-09T06:26:26.643Z,0.52
2024-05-09T06:27:26.625Z,0.51
2024-05-09T06:28:26.659Z,0.51
2024-05-09T06:29:26.814Z,0.51
2024-05-09T06:30:35.312Z,0.52
2024-05-09T06:31:27.781Z,0.52
2024-05-09T06:32:26.966Z,0.52
2024-05-09T06:33:27.004Z,0.51
2024-05-09T06:34:27.094Z,0.52
2024-05-09T06:35:26.903Z,0.52
2024-05-09T06:36:26.886Z,0.52
2024-05-09T06:37:26.907Z,0.51
2024-05-09T06:38:26.939Z,0.51
2024-05-09T06:39:26.962Z,0.52
2024-05-09T06:40:35.772Z,0.50
2024-05-09T06:41:28.318Z,0.50
2024-05-09T06:42:27.084Z,0.51
2024-05-09T06:43:27.107Z,0.51
2024-05-09T06:44:27.230Z,0.51
2024-05-09T06:45:27.148Z,0.51
2024-05-09T06:46:27.179Z,0.51
2024-05-09T06:47:27.315Z,0.51
2024-05-09T06:48:27.342Z,0.51
2024-05-09T06:49:27.413Z,0.51
2024-05-09T06:50:28.440Z,0.52
2024-05-09T06:51:27.381Z,0.52
2024-05-09T06:52:27.388Z,0.52
2024-05-09T06:53:27.471Z,0.52
2024-05-09T06:54:27.430Z,0.52
2024-05-09T06:55:27.448Z,0.51
2024-05-09T06:56:27.512Z,0.51
2024-05-09T06:57:27.503Z,0.52
2024-05-09T06:58:27.509Z,0.51
2024-05-09T06:59:27.623Z,0.52
2024-05-09T07:00:35.353Z,0.51
2024-05-09T07:01:28.620Z,0.51
2024-05-09T07:02:27.629Z,0.51
2024-05-09T07:03:27.720Z,0.51
2024-05-09T07:04:27.741Z,0.51
2024-05-09T07:05:27.719Z,0.51
2024-05-09T07:06:27.671Z,0.51
2024-05-09T07:07:27.717Z,0.52
2024-05-09T07:08:27.818Z,0.52
2024-05-09T07:09:27.758Z,0.51
2024-05-09T07:10:32.924Z,0.51
2024-05-09T07:11:28.944Z,0.51
2024-05-09T07:12:28.042Z,0.51
2024-05-09T07:13:27.927Z,0.52
2024-05-09T07:14:28.015Z,0.51
2024-05-09T07:15:27.950Z,0.51
2024-05-09T07:16:27.975Z,0.51
2024-05-09T07:17:28.188Z,0.51
2024-05-09T07:18:28.245Z,0.51
2024-05-09T07:19:28.174Z,0.51
2024-05-09T07:20:34.320Z,0.51
2024-05-09T07:21:29.117Z,0.51
2024-05-09T07:22:28.137Z,0.51
2024-05-09T07:23:28.306Z,0.51
2024-05-09T07:24:28.176Z,0.52
2024-05-09T07:25:28.218Z,0.52
2024-05-09T07:26:28.308Z,0.52
2024-05-09T07:27:28.234Z,0.51
2024-05-09T07:28:28.257Z,0.51
2024-05-09T07:29:28.398Z,0.51
2024-05-09T07:30:33.325Z,0.51
2024-05-09T07:31:29.382Z,0.51
2024-05-09T07:32:28.580Z,0.51
2024-05-09T07:33:28.742Z,0.51
2024-05-09T07:34:28.519Z,0.51
2024-05-09T07:35:28.729Z,0.52
2024-05-09T07:36:28.476Z,0.51
2024-05-09T07:37:28.504Z,0.51
2024-05-09T07:38:28.547Z,0.51
2024-05-09T07:39:28.539Z,0.51
2024-05-09T07:40:35.142Z,0.51
2024-05-09T07:41:29.665Z,0.51
2024-05-09T07:42:28.641Z,0.51
2024-05-09T07:43:28.655Z,0.51
2024-05-09T07:44:28.815Z,0.50
2024-05-09T07:45:45.086Z,0.51
2024-05-09T07:47:36.952Z,0.51
2024-05-09T07:48:57.128Z,0.51
2024-05-09T07:50:01.176Z,0.51
2024-05-09T07:53:32.513Z,0.51
2024-05-09T07:53:40.270Z,0.52
2024-05-09T07:54:30.016Z,0.52
2024-05-09T07:55:29.049Z,0.52
2024-05-09T07:56:29.273Z,0.53
2024-05-09T07:57:28.959Z,0.53
2024-05-09T07:58:28.930Z,0.53
2024-05-09T07:59:28.952Z,0.53
2024-05-09T08:00:31.698Z,0.52
2024-05-09T08:01:29.062Z,0.52
2024-05-09T08:02:29.162Z,0.52
2024-05-09T08:03:29.147Z,0.52
2024-05-09T08:04:29.235Z,0.51
2024-05-09T08:05:29.256Z,0.52
2024-05-09T08:06:29.157Z,0.51
2024-05-09T08:07:29.119Z,0.51
2024-05-09T08:08:29.120Z,0.50
2024-05-09T08:09:29.178Z,0.51
2024-05-09T08:10:29.478Z,0.50
2024-05-09T08:11:29.202Z,0.50
2024-05-09T08:12:29.242Z,0.51
2024-05-09T08:13:29.209Z,0.51
2024-05-09T08:14:29.228Z,0.52
2024-05-09T08:15:29.493Z,0.51
2024-05-09T08:16:29.452Z,0.51
2024-05-09T08:17:29.346Z,0.51
2024-05-09T08:18:29.553Z,0.51
2024-05-09T08:19:29.371Z,0.51
2024-05-09T08:20:33.660Z,0.51
2024-05-09T08:21:30.458Z,0.51
2024-05-09T08:22:29.400Z,0.51
2024-05-09T08:23:29.422Z,0.51
2024-05-09T08:24:29.469Z,0.51
2024-05-09T08:25:29.461Z,0.51
2024-05-09T08:26:29.487Z,0.51
2024-05-09T08:27:29.578Z,0.50
2024-05-09T08:28:29.540Z,0.50
2024-05-09T08:29:29.557Z,0.50
2024-05-09T08:30:35.823Z,0.50
2024-05-09T08:31:30.660Z,0.51
2024-05-09T08:32:29.753Z,0.51
2024-05-09T08:33:29.852Z,0.51
2024-05-09T08:34:29.844Z,0.50
2024-05-09T08:35:29.656Z,0.50
2024-05-09T08:36:29.721Z,0.51
2024-05-09T08:37:34.916Z,0.51
2024-05-09T08:38:30.732Z,0.51
2024-05-09T08:39:29.773Z,0.51
2024-05-09T08:40:34.825Z,0.51
2024-05-09T08:41:30.803Z,0.51
2024-05-09T08:42:29.837Z,0.51
2024-05-09T08:43:29.881Z,0.51
2024-05-09T08:44:29.849Z,0.52
2024-05-09T08:45:30.032Z,0.51
2024-05-09T08:46:30.015Z,0.51
2024-05-09T08:47:29.982Z,0.51
2024-05-09T08:48:30.322Z,0.51
2024-05-09T08:49:30.005Z,0.50
2024-05-09T08:50:37.703Z,0.51
2024-05-09T08:51:31.018Z,0.51
2024-05-09T08:52:30.002Z,0.51
2024-05-09T08:53:30.020Z,0.51
2024-05-09T08:54:30.049Z,0.50
2024-05-09T08:55:31.014Z,0.50
2024-05-09T08:56:30.079Z,0.51
2024-05-09T08:57:30.151Z,0.51
2024-05-09T08:58:30.123Z,0.51
2024-05-09T08:59:30.156Z,0.51
2024-05-09T09:00:36.702Z,0.51
2024-05-09T09:01:31.262Z,0.51
2024-05-09T09:02:30.316Z,0.51
2024-05-09T09:03:30.520Z,0.51
2024-05-09T09:04:30.446Z,0.51
2024-05-09T09:05:30.317Z,0.51
2024-05-09T09:06:30.330Z,0.51
2024-05-09T09:07:30.399Z,0.52
2024-05-09T09:08:30.317Z,0.51
2024-05-09T09:09:30.426Z,0.50
2024-05-09T09:10:32.375Z,0.51
2024-05-09T09:11:30.402Z,0.51
2024-05-09T09:12:30.473Z,0.51
2024-05-09T09:13:30.419Z,0.51
2024-05-09T09:14:30.425Z,0.51
2024-05-09T09:15:30.508Z,0.50
2024-05-09T09:16:30.521Z,0.51
2024-05-09T09:17:30.567Z,0.50
2024-05-09T09:18:31.082Z,0.50
2024-05-09T09:19:30.613Z,0.51
2024-05-09T09:20:36.219Z,0.51
2024-05-09T09:21:31.706Z,0.51
2024-05-09T09:22:30.541Z,0.51
2024-05-09T09:23:30.865Z,0.51
2024-05-09T09:24:30.620Z,0.51
2024-05-09T09:25:30.622Z,0.51
2024-05-09T09:26:30.618Z,0.51
2024-05-09T09:27:30.650Z,0.51
2024-05-09T09:28:30.658Z,0.51
2024-05-09T09:29:30.659Z,0.51
2024-05-09T09:30:36.827Z,0.50
2024-05-09T09:31:31.814Z,0.50
2024-05-09T09:32:30.763Z,0.51
2024-05-09T09:33:30.788Z,0.51
2024-05-09T09:34:31.168Z,0.51
2024-05-09T09:35:30.764Z,0.50
2024-05-09T09:36:30.842Z,0.51
2024-05-09T09:37:30.793Z,0.51
2024-05-09T09:38:30.828Z,0.50
2024-05-09T09:39:30.873Z,0.51
2024-05-09T09:40:32.970Z,0.51
2024-05-09T09:41:30.837Z,0.51
2024-05-09T09:42:30.873Z,0.51
2024-05-09T09:43:30.874Z,0.50
2024-05-09T09:44:30.889Z,0.51
2024-05-09T09:45:30.940Z,0.51
2024-05-09T09:46:31.058Z,0.51
2024-05-09T09:47:31.006Z,0.52
2024-05-09T09:48:31.215Z,0.52
2024-05-09T09:49:30.986Z,0.51
2024-05-09T09:50:34.539Z,0.50
2024-05-09T09:51:31.009Z,0.50
2024-05-09T09:52:31.079Z,0.51
2024-05-09T09:53:31.020Z,0.51
2024-05-09T09:54:31.091Z,0.51
2024-05-09T09:55:31.062Z,0.52
2024-05-09T09:56:31.044Z,0.51
2024-05-09T09:57:31.081Z,0.51
2024-05-09T09:58:31.116Z,0.52
2024-05-09T09:59:31.068Z,0.51
2024-05-09T10:00:33.373Z,0.51
2024-05-09T10:01:31.274Z,0.51
2024-05-09T10:02:31.302Z,0.51
2024-05-09T10:03:31.249Z,0.52
2024-05-09T10:04:31.208Z,0.52
2024-05-09T10:05:31.350Z,0.52
2024-05-09T10:06:31.166Z,0.52
2024-05-09T10:07:31.152Z,0.52
2024-05-09T10:08:31.172Z,0.52
2024-05-09T10:09:31.182Z,0.51
2024-05-09T10:10:32.993Z,0.51
2024-05-09T10:11:32.835Z,0.51
2024-05-09T10:12:31.274Z,0.51
2024-05-09T10:13:31.260Z,0.51
2024-05-09T10:14:31.249Z,0.51
2024-05-09T10:15:31.365Z,0.52
2024-05-09T10:16:31.309Z,0.52
2024-05-09T10:17:31.393Z,0.52
2024-05-09T10:18:32.748Z,0.51
2024-05-09T10:19:31.405Z,0.51
2024-05-09T10:20:32.939Z,0.51
2024-05-09T10:21:31.403Z,0.51
2024-05-09T10:22:31.333Z,0.51
2024-05-09T10:23:31.359Z,0.51
2024-05-09T10:24:31.373Z,0.51
2024-05-09T10:25:31.433Z,0.52
2024-05-09T10:26:31.386Z,0.51
2024-05-09T10:27:31.449Z,0.51
2024-05-09T10:28:31.443Z,0.51
2024-05-09T10:29:31.423Z,0.52
2024-05-09T10:30:35.927Z,0.51
2024-05-09T10:31:32.607Z,0.51
2024-05-09T10:32:31.564Z,0.51
2024-05-09T10:33:31.562Z,0.51
2024-05-09T10:34:31.511Z,0.52
2024-05-09T10:35:31.518Z,0.53
2024-05-09T10:36:31.557Z,0.52
2024-05-09T10:37:31.592Z,0.52
2024-05-09T10:38:31.528Z,0.52
2024-05-09T10:39:31.663Z,0.51
2024-05-09T10:40:32.164Z,0.52
2024-05-09T10:41:31.583Z,0.51
2024-05-09T10:42:31.661Z,0.51
2024-05-09T10:43:31.608Z,0.51
2024-05-09T10:44:31.624Z,0.52
2024-05-09T10:45:31.668Z,0.51
2024-05-09T10:46:31.781Z,0.52
2024-05-09T10:47:31.723Z,0.51
2024-05-09T10:48:31.828Z,0.52
2024-05-09T10:49:31.797Z,0.51
2024-05-09T10:50:34.274Z,0.50
2024-05-09T10:51:31.786Z,0.51
2024-05-09T10:52:31.840Z,0.51
2024-05-09T10:53:31.791Z,0.51
2024-05-09T10:54:31.829Z,0.51
2024-05-09T10:55:31.893Z,0.51
2024-05-09T10:56:31.821Z,0.51
2024-05-09T10:57:31.859Z,0.51
2024-05-09T10:58:31.854Z,0.51
2024-05-09T10:59:31.877Z,0.52
2024-05-09T11:00:35.853Z,0.52
2024-05-09T11:01:32.007Z,0.52
2024-05-09T11:02:32.150Z,0.52
2024-05-09T11:03:32.238Z,0.52
2024-05-09T11:04:31.954Z,0.52
2024-05-09T11:05:32.003Z,0.53
2024-05-09T11:06:31.989Z,0.52
2024-05-09T11:07:32.017Z,0.53
2024-05-09T11:08:32.068Z,0.51
2024-05-09T11:09:32.037Z,0.52
2024-05-09T11:10:34.309Z,0.52
2024-05-09T11:11:32.120Z,0.53
2024-05-09T11:12:32.050Z,0.51
2024-05-09T11:13:32.289Z,0.53
2024-05-09T11:14:32.031Z,0.53
2024-05-09T11:15:32.104Z,0.53
2024-05-09T11:16:32.079Z,0.52
2024-05-09T11:17:32.127Z,0.52
2024-05-09T11:18:36.201Z,0.52
2024-05-09T11:19:33.200Z,0.52
2024-05-09T11:20:35.018Z,0.52
2024-05-09T11:21:32.117Z,0.52
2024-05-09T11:22:32.124Z,0.52
2024-05-09T11:23:32.200Z,0.53
2024-05-09T11:24:32.154Z,0.54
2024-05-09T11:25:32.130Z,0.53
2024-05-09T11:26:32.154Z,0.53
2024-05-09T11:27:32.186Z,0.53
2024-05-09T11:28:32.172Z,0.52
2024-05-09T11:29:32.166Z,0.52
2024-05-09T11:30:32.773Z,0.53
2024-05-09T11:31:32.325Z,0.53
2024-05-09T11:32:32.291Z,0.52
2024-05-09T11:33:32.325Z,0.52
2024-05-09T11:34:32.335Z,0.53
2024-05-09T11:35:32.223Z,0.51
2024-05-09T11:36:32.297Z,0.53
2024-05-09T11:37:34.667Z,0.53
2024-05-09T11:38:32.258Z,0.53
2024-05-09T11:39:32.277Z,0.53
2024-05-09T11:40:34.510Z,0.53
2024-05-09T11:41:32.435Z,0.54
2024-05-09T11:42:32.493Z,0.54
2024-05-09T11:43:32.607Z,0.54
2024-05-09T11:44:32.483Z,0.54
2024-05-09T11:45:32.550Z,0.55
2024-05-09T11:46:32.522Z,0.54
2024-05-09T11:47:32.599Z,0.53
2024-05-09T11:48:32.875Z,0.54
2024-05-09T11:49:32.772Z,0.53
2024-05-09T11:50:35.551Z,0.53
2024-05-09T11:51:32.719Z,0.54
2024-05-09T11:52:32.654Z,0.53
2024-05-09T11:53:32.736Z,0.54
2024-05-09T11:54:32.741Z,0.53
2024-05-09T11:55:32.748Z,0.53
2024-05-09T11:56:32.749Z,0.53
2024-05-09T11:57:32.806Z,0.54
2024-05-09T11:58:32.741Z,0.52
2024-05-09T11:59:32.758Z,0.53
2024-05-09T12:00:36.771Z,0.53
2024-05-09T12:01:33.921Z,0.53
2024-05-09T12:02:32.846Z,0.53
2024-05-09T12:03:32.987Z,0.53
2024-05-09T12:04:32.987Z,0.53
2024-05-09T12:05:33.315Z,0.53
2024-05-09T12:06:32.895Z,0.53
2024-05-09T12:07:32.853Z,0.54
2024-05-09T12:08:32.878Z,0.52
2024-05-09T12:09:32.942Z,0.52
2024-05-09T12:10:35.412Z,0.53
2024-05-09T12:11:32.931Z,0.53
2024-05-09T12:12:35.364Z,0.53
2024-05-09T12:13:33.033Z,0.53
2024-05-09T12:14:32.921Z,0.53
2024-05-09T12:15:33.074Z,0.53
2024-05-09T12:16:33.158Z,0.54
2024-05-09T12:17:33.100Z,0.54
2024-05-09T12:18:33.051Z,0.53
2024-05-09T12:19:33.070Z,0.53
2024-05-09T12:20:37.304Z,0.53
2024-05-09T12:21:34.035Z,0.53
2024-05-09T12:22:32.998Z,0.53
2024-05-09T12:23:33.032Z,0.53
2024-05-09T12:24:33.068Z,0.54
2024-05-09T12:25:33.072Z,0.54
2024-05-09T12:26:33.061Z,0.54
2024-05-09T12:27:33.081Z,0.53
2024-05-09T12:28:33.361Z,0.53
2024-05-09T12:29:34.992Z,0.53
2024-05-09T12:30:38.004Z,0.53
2024-05-09T12:31:34.156Z,0.53
2024-05-09T12:32:33.200Z,0.53
2024-05-09T12:33:33.223Z,0.54
2024-05-09T12:34:33.174Z,0.54
2024-05-09T12:35:33.315Z,0.54
2024-05-09T12:36:33.164Z,0.54
2024-05-09T12:37:33.145Z,0.53
2024-05-09T12:38:33.163Z,0.53
2024-05-09T12:39:33.335Z,0.53
2024-05-09T12:40:36.950Z,0.53
2024-05-09T12:41:34.210Z,0.53
2024-05-09T12:42:33.911Z,0.53
2024-05-09T12:43:33.373Z,0.53
2024-05-09T12:44:33.217Z,0.54
2024-05-09T12:45:33.413Z,0.54
2024-05-09T12:46:33.335Z,0.54
2024-05-09T12:47:33.324Z,0.54
2024-05-09T12:48:33.416Z,0.53
2024-05-09T12:49:33.539Z,0.53
2024-05-09T12:50:34.539Z,0.53
2024-05-09T12:51:33.357Z,0.52
2024-05-09T12:52:33.328Z,0.53
2024-05-09T12:53:33.338Z,0.53
2024-05-09T12:54:33.384Z,0.53
2024-05-09T12:55:41.438Z,0.52
2024-05-09T12:56:34.365Z,0.53
2024-05-09T12:57:33.385Z,0.53
2024-05-09T12:58:33.386Z,0.53
2024-05-09T12:59:33.400Z,0.52
2024-05-09T13:00:34.390Z,0.53
2024-05-09T13:01:33.663Z,0.52
2024-05-09T13:02:33.553Z,0.52
2024-05-09T13:03:33.670Z,0.52
2024-05-09T13:04:33.591Z,0.53
2024-05-09T13:05:33.796Z,0.52
2024-05-09T13:06:33.460Z,0.53
2024-05-09T13:07:33.470Z,0.52
2024-05-09T13:08:33.490Z,0.51
2024-05-09T13:09:33.518Z,0.52
2024-05-09T13:10:33.802Z,0.52
2024-05-09T13:11:33.575Z,0.52
2024-05-09T13:12:33.557Z,0.53
2024-05-09T13:13:33.527Z,0.52
2024-05-09T13:14:33.540Z,0.52
2024-05-09T13:15:33.584Z,0.53
2024-05-09T13:16:33.638Z,0.52
2024-05-09T13:17:33.631Z,0.52
2024-05-09T13:18:33.766Z,0.52
2024-05-09T13:19:33.596Z,0.52
2024-05-09T13:20:35.567Z,0.52
2024-05-09T13:21:33.769Z,0.52
2024-05-09T13:22:33.749Z,0.53
2024-05-09T13:23:33.793Z,0.52